Terminal Aerodrome Forecast
Issued by NWS

Home | Current Version | Previous Version | Text Only | Print | Product List | Glossary On
Versions: 1 2 3 4 5 6 7 8 9 10 11 12 13 14 15 16 17 18 19 20 21 22 23 24 25 26 27 28 29 30 31 32 33 34 35 36 37 38 39 40
000
FTUS45 KBOU 191508 AAA
TAFAPA
TAF AMD
KAPA 191508Z 1915/2012 22005KT P6SM FEW100 SCT140 BKN220
     FM191700 VRB05KT P6SM FEW100 SCT120 BKN200
     FM192000 20012KT P6SM SCT080 BKN150
      TEMPO 1920/1924 VRB20G35KT -TSRA BKN080CB
     FM200000 15014KT P6SM VCTS SCT080CB BKN120
     FM200300 20010KT P6SM FEW080 SCT120 BKN170=

USA.gov is the U.S. government's official web portal to all federal, state and local government web resources and services.